Time;durP1;ratioP1;P1;durP2;ratioP2;P2;SDS_P1;SDS_P2;PMS_P1;PMS_P2;Temp;Humidity;BMP_temperature;BMP_pressure;BME280_temperature;BME280_humidity;BME280_pressure;Samples;Min_cycle;Max_cycle;Signal;HPM_P1;HPM_P2
2023/03/25 00:13:41;;;;;;;1.00;0.80;;;8.00;99.90;;;;;;1441899;22;20934;-93
2023/03/25 00:16:15;;;;;;;1.00;0.75;;;8.00;99.90;;;;;;5025432;28;20210;-92
2023/03/25 00:18:42;;;;;;;0.80;0.70;;;8.00;99.90;;;;;;5034330;28;20205;-90
2023/03/25 00:21:10;;;;;;;0.95;0.80;;;7.90;99.90;;;;;;5025899;28;20214;-91
2023/03/25 00:23:39;;;;;;;1.05;0.85;;;7.80;99.90;;;;;;5026213;28;20313;-91
2023/03/25 00:26:07;;;;;;;0.90;0.73;;;7.80;99.90;;;;;;5017049;28;20353;-91
2023/03/25 00:28:40;;;;;;;1.10;0.75;;;7.80;99.90;;;;;;5017883;28;20210;-92
2023/03/25 00:31:14;;;;;;;0.80;0.70;;;7.70;99.90;;;;;;5019882;28;20206;-93
2023/03/25 00:33:41;;;;;;;1.70;0.80;;;7.60;99.90;;;;;;5019402;28;20210;-93
2023/03/25 00:42:09;;;;;;;1.75;0.85;;;7.40;99.90;;;;;;5027932;28;20237;-92
2023/03/25 06:32:05;;;;;;;0.90;0.75;;;6.70;99.90;;;;;;1485699;26;20230;-93
2023/03/25 06:34:32;;;;;;;5.18;1.20;;;6.90;99.90;;;;;;5016072;28;20214;-92
2023/03/25 06:37:37;;;;;;;1.85;0.88;;;7.00;99.90;;;;;;5010301;28;20207;-92
2023/03/25 06:56:27;;;;;;;2.90;0.90;;;7.00;99.90;;;;;;2774798;22;20276;-94
2023/03/25 07:04:13;;;;;;;0.90;0.70;;;7.40;99.90;;;;;;866096;22;20499;-94
2023/03/25 07:12:13;;;;;;;1.55;0.90;;;7.80;99.90;;;;;;5063860;28;20196;-93
2023/03/25 07:14:40;;;;;;;2.25;0.80;;;8.00;99.90;;;;;;5056661;28;20193;-95
2023/03/25 07:17:07;;;;;;;1.15;0.90;;;8.00;99.90;;;;;;5057040;28;20212;-95
2023/03/25 07:19:34;;;;;;;1.38;0.90;;;8.20;99.90;;;;;;5056789;28;20273;-94
2023/03/25 07:22:00;;;;;;;2.65;0.90;;;8.50;99.90;;;;;;5055324;28;20217;-94
2023/03/25 07:24:27;;;;;;;3.47;1.05;;;8.80;99.90;;;;;;5045729;28;20570;-94
2023/03/25 07:26:54;;;;;;;1.52;0.85;;;9.00;99.90;;;;;;5058537;28;20198;-94
2023/03/25 07:29:23;;;;;;;2.47;1.15;;;9.00;99.90;;;;;;5068535;28;20205;-95
2023/03/25 07:31:49;;;;;;;1.55;1.05;;;8.90;99.90;;;;;;5069696;28;20245;-94
2023/03/25 07:34:16;;;;;;;3.80;1.30;;;8.60;99.90;;;;;;5060155;28;20205;-95
2023/03/25 07:36:43;;;;;;;1.75;0.85;;;8.50;99.90;;;;;;5066905;28;20189;-94
2023/03/25 07:39:10;;;;;;;0.90;0.70;;;8.40;99.90;;;;;;5068211;28;20208;-94
2023/03/25 07:41:37;;;;;;;1.20;1.10;;;8.20;99.90;;;;;;5064891;28;20209;-95
2023/03/25 07:44:04;;;;;;;1.98;1.10;;;8.10;99.90;;;;;;5066310;28;20285;-95
2023/03/25 07:46:32;;;;;;;1.10;0.90;;;8.00;99.90;;;;;;5074585;28;20185;-94
2023/03/25 07:48:59;;;;;;;1.05;0.95;;;8.00;99.90;;;;;;5066741;28;20190;-95
2023/03/25 07:51:26;;;;;;;1.27;1.17;;;8.10;99.90;;;;;;5074854;28;20212;-94
2023/03/25 07:53:53;;;;;;;1.63;1.00;;;8.40;99.90;;;;;;5066111;28;20198;-94
2023/03/25 07:56:20;;;;;;;1.42;0.98;;;8.90;99.90;;;;;;5068162;28;20182;-96
2023/03/25 07:58:48;;;;;;;2.10;1.20;;;9.30;99.90;;;;;;5069892;28;20180;-95
2023/03/25 08:01:15;;;;;;;1.50;0.90;;;9.40;99.90;;;;;;5068235;28;20209;-96
2023/03/25 08:03:44;;;;;;;0.95;0.70;;;9.70;99.90;;;;;;5066417;28;20182;-94
2023/03/25 08:06:10;;;;;;;1.42;0.80;;;9.80;99.90;;;;;;5058736;28;20253;-95
2023/03/25 08:08:37;;;;;;;0.90;0.80;;;9.80;99.90;;;;;;5058824;28;20675;-93
2023/03/25 08:11:04;;;;;;;0.80;0.70;;;9.70;99.90;;;;;;5055533;28;20236;-93
2023/03/25 08:13:32;;;;;;;1.90;1.10;;;9.70;99.90;;;;;;5055822;28;20475;-93
2023/03/25 08:15:59;;;;;;;1.63;0.80;;;9.70;99.90;;;;;;5060192;28;20201;-94
2023/03/25 08:18:26;;;;;;;1.20;1.00;;;9.70;99.90;;;;;;5063222;28;20177;-91
2023/03/25 08:21:10;;;;;;;1.13;0.85;;;9.60;99.90;;;;;;5070156;28;20213;-93
2023/03/25 08:23:37;;;;;;;1.20;0.80;;;9.60;99.90;;;;;;5062320;23;20256;-69
2023/03/25 08:26:04;;;;;;;1.80;1.02;;;9.70;99.90;;;;;;5011330;28;20660;-68
2023/03/25 08:28:32;;;;;;;0.80;0.70;;;9.70;99.90;;;;;;5010904;28;20198;-69
2023/03/25 08:31:01;;;;;;;0.90;0.80;;;9.50;99.90;;;;;;5011076;28;20225;-69
2023/03/25 08:33:32;;;;;;;1.23;0.90;;;9.10;99.90;;;;;;5010929;28;20570;-69
2023/03/25 08:36:01;;;;;;;0.93;0.80;;;8.80;99.90;;;;;;5010883;28;20669;-69
2023/03/25 08:38:30;;;;;;;1.00;0.70;;;8.40;99.90;;;;;;5010297;28;20565;-69
2023/03/25 08:40:57;;;;;;;1.30;0.80;;;8.20;99.90;;;;;;5010723;28;20229;-69
2023/03/25 08:43:24;;;;;;;1.00;0.90;;;8.10;99.90;;;;;;5009520;28;20265;-68
2023/03/25 08:45:50;;;;;;;1.33;0.80;;;8.00;99.90;;;;;;5007828;28;20222;-68
2023/03/25 08:48:17;;;;;;;0.80;0.70;;;8.00;99.90;;;;;;5007620;28;20203;-69
2023/03/25 08:50:44;;;;;;;0.98;0.70;;;8.00;99.90;;;;;;5009912;28;20222;-69
2023/03/25 08:53:12;;;;;;;0.80;0.70;;;8.20;99.90;;;;;;5008793;28;20253;-69
2023/03/25 08:55:39;;;;;;;1.67;0.70;;;8.30;99.90;;;;;;5010284;28;20751;-69
2023/03/25 08:58:06;;;;;;;1.05;0.88;;;8.40;99.90;;;;;;5010412;28;20210;-68
2023/03/25 09:00:34;;;;;;;0.80;0.70;;;8.40;99.90;;;;;;5010136;28;20218;-68
2023/03/25 09:03:02;;;;;;;3.60;1.08;;;8.30;99.90;;;;;;5010372;28;20235;-69
2023/03/25 09:05:28;;;;;;;1.27;0.80;;;8.20;99.90;;;;;;5010058;28;20198;-68
2023/03/25 09:07:55;;;;;;;0.80;0.70;;;8.10;99.90;;;;;;5010427;28;20210;-68
2023/03/25 09:10:24;;;;;;;1.38;1.05;;;8.00;99.90;;;;;;5010093;28;20229;-68
2023/03/25 09:12:51;;;;;;;1.15;0.85;;;8.10;99.90;;;;;;5010361;28;20194;-69
2023/03/25 09:15:18;;;;;;;1.27;0.77;;;8.00;99.90;;;;;;5009898;28;20210;-68
2023/03/25 09:17:45;;;;;;;1.20;1.02;;;8.00;99.90;;;;;;5010192;28;20213;-68
2023/03/25 09:20:12;;;;;;;1.00;0.80;;;7.90;99.90;;;;;;5010294;28;20222;-68
2023/03/25 09:22:39;;;;;;;1.92;1.00;;;7.70;99.90;;;;;;5010283;28;20712;-68
2023/03/25 09:25:07;;;;;;;0.80;0.73;;;7.60;99.90;;;;;;5010363;28;20217;-69
2023/03/25 09:27:35;;;;;;;0.90;0.80;;;7.70;99.90;;;;;;4989343;28;20210;-69
2023/03/25 09:30:03;;;;;;;1.33;0.90;;;7.90;99.90;;;;;;4995885;28;20224;-69
2023/03/25 09:32:30;;;;;;;1.20;0.90;;;7.90;99.90;;;;;;4982856;28;20593;-69
2023/03/25 09:34:57;;;;;;;1.10;1.00;;;8.00;99.90;;;;;;4977774;28;20690;-70
2023/03/25 09:37:23;;;;;;;1.52;0.90;;;8.60;99.90;;;;;;4982246;28;20621;-70
2023/03/25 09:39:50;;;;;;;2.38;1.10;;;9.00;99.90;;;;;;4970516;28;20234;-70
2023/03/25 09:42:33;;;;;;;1.27;0.80;;;9.40;99.90;;;;;;4986925;28;20229;-70
2023/03/25 09:45:14;;;;;;;0.95;0.70;;;10.00;99.90;;;;;;5002286;28;20202;-70
2023/03/25 09:47:45;;;;;;;0.80;0.70;;;11.20;99.90;;;;;;5007473;28;20924;-69
2023/03/25 09:50:14;;;;;;;1.75;0.90;;;11.50;99.90;;;;;;5009317;28;20229;-70
2023/03/25 09:52:51;;;;;;;2.65;1.00;;;11.30;99.90;;;;;;5009762;28;20202;-70
2023/03/25 09:55:23;;;;;;;0.98;0.82;;;11.10;99.90;;;;;;5010163;28;20256;-70
2023/03/25 09:57:54;;;;;;;1.00;0.82;;;11.00;99.90;;;;;;5010684;28;20337;-70
2023/03/25 10:00:25;;;;;;;2.03;1.05;;;10.60;99.90;;;;;;5009916;28;20230;-70
2023/03/25 10:02:59;;;;;;;1.05;0.95;;;11.00;99.90;;;;;;5010164;28;20629;-70
2023/03/25 10:05:39;;;;;;;0.90;0.70;;;12.40;99.90;;;;;;5012480;28;20209;-68
2023/03/25 10:08:16;;;;;;;1.00;0.80;;;14.10;99.90;;;;;;5013809;28;20202;-68
2023/03/25 10:10:47;;;;;;;1.10;0.85;;;14.90;99.90;;;;;;5013843;28;20233;-68
2023/03/25 10:13:21;;;;;;;1.35;0.80;;;14.50;99.90;;;;;;5013937;28;20297;-68
2023/03/25 10:15:55;;;;;;;0.90;0.80;;;14.80;99.90;;;;;;5013633;28;20198;-68
2023/03/25 10:18:40;;;;;;;1.33;0.90;;;15.10;99.90;;;;;;5013262;28;20467;-67
2023/03/25 10:21:14;;;;;;;1.60;0.80;;;15.10;99.90;;;;;;5013422;28;20481;-68
2023/03/25 10:23:44;;;;;;;1.33;0.80;;;14.80;99.90;;;;;;5012952;28;20504;-67
2023/03/25 10:26:15;;;;;;;1.63;0.73;;;13.70;99.90;;;;;;5013316;28;20460;-68
2023/03/25 10:28:49;;;;;;;1.30;1.00;;;13.90;99.90;;;;;;5012256;28;20457;-68
2023/03/25 10:31:20;;;;;;;1.70;0.90;;;14.10;99.90;;;;;;5013024;28;20567;-68
2023/03/25 10:33:51;;;;;;;2.70;2.50;;;14.70;99.90;;;;;;5013298;28;20201;-68
2023/03/25 10:36:20;;;;;;;1.30;0.73;;;15.30;99.90;;;;;;5013262;28;20461;-68
2023/03/25 10:38:53;;;;;;;1.87;1.00;;;15.90;99.90;;;;;;5013292;28;20469;-68
2023/03/25 10:41:25;;;;;;;0.80;0.60;;;16.00;99.90;;;;;;5013135;28;20461;-68
2023/03/25 10:43:52;;;;;;;1.77;0.80;;;17.00;99.90;;;;;;5013614;28;20492;-70
2023/03/25 10:46:28;;;;;;;1.87;0.90;;;17.40;99.90;;;;;;5012795;28;20461;-70
2023/03/25 10:48:55;;;;;;;1.13;0.80;;;16.50;99.90;;;;;;5013008;28;20963;-68
2023/03/25 10:51:25;;;;;;;1.00;0.83;;;14.80;99.90;;;;;;5012822;28;20453;-68
2023/03/25 10:53:53;;;;;;;1.30;0.80;;;14.00;99.90;;;;;;5013364;28;20457;-67
2023/03/25 10:56:23;;;;;;;0.93;0.80;;;13.50;99.90;;;;;;5012787;28;20457;-68
2023/03/25 10:58:53;;;;;;;2.50;1.00;;;13.30;99.90;;;;;;5012846;28;21005;-67
2023/03/25 11:01:36;;;;;;;0.95;0.75;;;13.20;99.90;;;;;;5012748;28;20453;-67
2023/03/25 11:04:06;;;;;;;0.90;0.75;;;12.90;99.90;;;;;;5013055;28;20198;-68
2023/03/25 11:06:36;;;;;;;0.88;0.75;;;12.90;99.90;;;;;;5012175;28;20210;-70
2023/03/25 11:09:18;;;;;;;1.60;0.90;;;13.00;99.90;;;;;;5012980;28;20202;-71
2023/03/25 11:11:46;;;;;;;1.30;0.90;;;13.70;99.90;;;;;;5013347;28;20241;-68
2023/03/25 11:14:13;;;;;;;1.27;1.10;;;14.80;99.90;;;;;;5013291;28;20465;-69
2023/03/25 11:16:47;;;;;;;0.90;0.70;;;15.30;99.40;;;;;;5011798;28;20469;-68
2023/03/25 11:19:20;;;;;;;1.20;0.80;;;15.30;98.90;;;;;;5013410;28;20845;-68
2023/03/25 11:21:48;;;;;;;1.00;0.80;;;16.30;99.40;;;;;;4998126;28;20457;-68
2023/03/25 11:24:18;;;;;;;0.90;0.70;;;16.60;97.30;;;;;;5012456;28;20468;-69
2023/03/25 11:26:47;;;;;;;2.20;1.20;;;16.00;98.50;;;;;;5012250;28;20885;-68
2023/03/25 11:29:16;;;;;;;1.67;0.97;;;15.70;98.60;;;;;;5012904;28;20484;-69
2023/03/25 11:31:55;;;;;;;1.20;0.80;;;15.70;98.40;;;;;;5012186;28;20829;-69
2023/03/25 11:34:22;;;;;;;0.90;0.73;;;15.30;98.20;;;;;;5012105;28;20457;-68
2023/03/25 11:36:54;;;;;;;1.43;0.83;;;16.10;97.70;;;;;;5011929;28;20461;-69
2023/03/25 11:39:28;;;;;;;1.67;0.90;;;17.00;98.10;;;;;;5012032;28;20514;-68
2023/03/25 11:41:55;;;;;;;0.90;0.80;;;18.20;97.30;;;;;;5012162;28;20952;-69
2023/03/25 11:44:25;;;;;;;1.10;0.70;;;18.70;94.30;;;;;;5012033;28;20964;-69
2023/03/25 11:46:57;;;;;;;0.80;0.70;;;19.20;94.70;;;;;;5011925;28;20465;-68
2023/03/25 11:49:25;;;;;;;1.20;0.70;;;20.40;92.70;;;;;;5011901;28;20496;-69
2023/03/25 11:52:00;;;;;;;1.63;1.10;;;20.10;92.80;;;;;;5012109;28;20465;-68
2023/03/25 11:54:27;;;;;;;1.00;0.80;;;20.20;93.00;;;;;;5011703;28;20515;-68
2023/03/25 11:56:55;;;;;;;1.20;1.10;;;19.40;93.00;;;;;;5011671;28;20469;-68
2023/03/25 11:59:24;;;;;;;0.87;0.73;;;19.20;93.80;;;;;;5011840;28;20481;-68
2023/03/25 12:02:00;;;;;;;1.47;1.37;;;19.50;93.30;;;;;;5011682;28;20519;-68
2023/03/25 12:04:27;;;;;;;1.00;0.80;;;20.00;92.40;;;;;;5011631;28;20588;-68
2023/03/25 12:06:57;;;;;;;1.20;0.70;;;20.10;93.10;;;;;;5011409;28;20461;-67
2023/03/25 12:09:24;;;;;;;1.13;0.93;;;19.80;93.00;;;;;;5011466;28;20512;-69
2023/03/25 12:12:03;;;;;;;1.30;0.93;;;18.50;92.50;;;;;;5011631;28;20461;-68
2023/03/25 12:14:41;;;;;;;1.20;1.00;;;17.20;93.20;;;;;;5011388;28;20848;-68
2023/03/25 12:17:18;;;;;;;1.60;1.50;;;16.30;94.40;;;;;;5004624;28;20462;-71
2023/03/25 12:19:54;;;;;;;1.40;0.80;;;15.40;94.30;;;;;;4987263;28;20484;-68
2023/03/25 12:22:33;;;;;;;1.37;0.80;;;14.70;94.90;;;;;;5011105;28;20485;-70
2023/03/25 12:25:16;;;;;;;1.00;0.80;;;14.70;95.20;;;;;;5011444;28;20842;-67
2023/03/25 12:27:55;;;;;;;1.30;0.80;;;14.50;95.10;;;;;;5009769;28;20461;-68
2023/03/25 12:30:35;;;;;;;1.20;0.77;;;14.50;95.80;;;;;;5024553;23;20496;-73
2023/03/25 12:33:15;;;;;;;2.33;0.83;;;15.40;94.60;;;;;;5011077;28;20898;-72
2023/03/25 12:35:47;;;;;;;1.97;0.90;;;15.50;94.80;;;;;;5010154;28;20457;-72
2023/03/25 12:38:32;;;;;;;1.73;1.00;;;15.30;95.00;;;;;;5010624;28;20453;-74
2023/03/25 12:41:13;;;;;;;1.43;0.80;;;14.90;94.40;;;;;;5004932;28;20477;-73
2023/03/25 12:43:52;;;;;;;2.10;0.90;;;14.50;94.70;;;;;;5011343;28;20477;-73
2023/03/25 12:46:38;;;;;;;0.93;0.80;;;13.90;95.90;;;;;;5011731;28;20531;-73
2023/03/25 12:49:20;;;;;;;0.90;0.70;;;13.20;97.40;;;;;;5006202;28;20489;-73
2023/03/25 12:51:56;;;;;;;1.05;0.70;;;12.40;99.50;;;;;;5011552;28;20777;-73
2023/03/25 12:54:40;;;;;;;2.13;0.93;;;11.70;99.90;;;;;;5011653;28;20210;-73
2023/03/25 12:57:18;;;;;;;0.98;0.70;;;11.60;99.90;;;;;;5011185;28;20206;-73
2023/03/25 13:00:02;;;;;;;1.10;0.90;;;11.50;99.90;;;;;;5011620;28;20218;-73
2023/03/25 13:02:53;;;;;;;0.80;0.70;;;12.00;99.90;;;;;;5012318;28;20233;-74
2023/03/25 13:05:25;;;;;;;1.30;0.80;;;13.30;99.60;;;;;;5031016;28;20259;-73
2023/03/25 13:07:58;;;;;;;3.80;1.20;;;14.80;98.40;;;;;;5026844;28;20217;-73
2023/03/25 13:10:28;;;;;;;1.30;0.80;;;15.90;97.60;;;;;;5010423;28;20226;-73
2023/03/25 13:12:56;;;;;;;1.10;0.83;;;16.70;96.60;;;;;;5010538;28;20469;-72
2023/03/25 13:15:26;;;;;;;4.27;0.90;;;16.80;95.30;;;;;;5010030;28;20956;-73
2023/03/25 13:17:57;;;;;;;0.80;0.70;;;16.00;95.70;;;;;;5005442;28;20512;-73
2023/03/25 13:20:28;;;;;;;1.40;0.97;;;15.10;96.00;;;;;;5003026;28;20886;-73
2023/03/25 13:23:00;;;;;;;1.03;0.80;;;14.80;97.20;;;;;;5011254;28;20999;-73
2023/03/25 13:25:31;;;;;;;0.80;0.73;;;15.10;95.90;;;;;;5009255;28;20469;-72
2023/03/25 13:28:00;;;;;;;0.80;0.70;;;14.90;96.10;;;;;;5013113;28;20465;-75
2023/03/25 13:30:32;;;;;;;0.80;0.80;;;14.90;95.70;;;;;;5011922;28;21025;-74
2023/03/25 13:33:08;;;;;;;0.80;0.70;;;15.00;95.50;;;;;;5011729;28;20472;-75
2023/03/25 13:35:42;;;;;;;1.80;0.90;;;15.30;95.40;;;;;;5015817;28;20457;-75
2023/03/25 13:38:15;;;;;;;1.50;1.00;;;15.70;94.90;;;;;;5016082;28;20817;-75
2023/03/25 13:40:48;;;;;;;1.67;1.03;;;15.90;94.40;;;;;;5020361;28;20497;-75
2023/03/25 13:43:23;;;;;;;1.10;0.80;;;16.30;95.00;;;;;;5016410;28;20492;-75
2023/03/25 13:45:55;;;;;;;2.03;1.07;;;16.70;94.10;;;;;;5026848;28;20463;-73
2023/03/25 13:48:27;;;;;;;1.93;1.03;;;16.50;93.00;;;;;;5034543;28;20464;-74
2023/03/25 13:50:57;;;;;;;1.93;1.07;;;16.20;93.60;;;;;;5034158;28;20936;-73
2023/03/25 13:53:30;;;;;;;1.53;0.90;;;16.30;93.70;;;;;;5034884;28;20525;-74
2023/03/25 13:56:12;;;;;;;1.00;0.90;;;16.60;93.50;;;;;;5033944;28;20912;-75
2023/03/25 13:58:58;;;;;;;1.73;0.90;;;16.80;93.40;;;;;;5024614;28;20542;-73
2023/03/25 14:01:42;;;;;;;1.57;0.90;;;16.80;93.00;;;;;;5014521;28;20493;-73
2023/03/25 14:04:41;;;;;;;1.10;1.00;;;16.60;93.10;;;;;;5019222;28;20480;-74
2023/03/25 14:07:43;;;;;;;2.30;1.23;;;16.10;92.70;;;;;;5028008;28;20912;-74
2023/03/25 14:10:25;;;;;;;1.80;0.80;;;15.20;94.00;;;;;;5028687;28;20511;-76
2023/03/25 14:12:55;;;;;;;1.60;0.97;;;14.40;94.30;;;;;;5020217;28;20504;-75
2023/03/25 14:15:26;;;;;;;2.30;1.33;;;13.90;95.50;;;;;;5011466;28;20532;-73
2023/03/25 14:17:56;;;;;;;2.00;1.10;;;13.60;95.80;;;;;;5008459;28;21001;-74
2023/03/25 14:20:27;;;;;;;1.58;0.90;;;13.30;97.00;;;;;;5031024;28;20483;-74
2023/03/25 14:22:59;;;;;;;0.93;0.75;;;13.20;98.10;;;;;;5024691;28;20225;-74
2023/03/25 14:25:37;;;;;;;1.30;1.00;;;13.20;97.40;;;;;;5013631;28;20233;-72
2023/03/25 14:28:05;;;;;;;3.20;1.00;;;13.40;96.70;;;;;;5035835;28;20556;-76
2023/03/25 14:30:34;;;;;;;1.77;0.80;;;14.10;95.80;;;;;;5036553;28;20491;-74
2023/03/25 14:33:02;;;;;;;1.50;0.90;;;14.70;95.40;;;;;;5034160;28;20606;-75
2023/03/25 14:35:48;;;;;;;2.90;1.00;;;15.20;94.30;;;;;;5014571;28;20473;-75
2023/03/25 14:38:46;;;;;;;1.00;0.87;;;15.20;94.60;;;;;;5016410;28;20511;-74
2023/03/25 14:41:15;;;;;;;1.60;1.07;;;15.30;94.30;;;;;;5016204;28;20515;-75
2023/03/25 14:43:46;;;;;;;1.57;1.03;;;15.20;94.60;;;;;;5016693;28;20481;-73
2023/03/25 14:46:22;;;;;;;1.10;1.00;;;14.80;93.70;;;;;;5031506;28;20463;-74
2023/03/25 14:48:51;;;;;;;1.27;0.80;;;14.90;93.90;;;;;;5036593;28;20946;-74
2023/03/25 14:51:46;;;;;;;0.90;0.70;;;15.10;94.30;;;;;;5035037;28;20890;-74
2023/03/25 14:54:29;;;;;;;1.50;1.00;;;15.20;92.60;;;;;;5036427;28;20452;-73
2023/03/25 14:57:05;;;;;;;0.90;0.80;;;15.00;93.00;;;;;;5035896;28;20826;-74
2023/03/25 14:59:37;;;;;;;1.33;0.83;;;15.10;92.80;;;;;;5036979;28;21005;-74
2023/03/25 15:02:10;;;;;;;1.77;0.90;;;15.10;93.30;;;;;;5035528;28;20471;-75
2023/03/25 15:04:39;;;;;;;1.30;1.03;;;14.80;93.90;;;;;;5034859;28;20538;-75
2023/03/25 15:07:13;;;;;;;1.30;0.80;;;15.00;94.40;;;;;;5034952;28;20506;-75
2023/03/25 15:09:51;;;;;;;4.23;1.07;;;15.50;93.90;;;;;;5039648;28;20990;-75
2023/03/25 15:12:25;;;;;;;1.50;1.03;;;15.80;93.70;;;;;;5039220;28;20905;-76
2023/03/25 15:14:56;;;;;;;2.10;1.33;;;16.00;92.80;;;;;;5039926;28;20518;-76
2023/03/25 15:17:43;;;;;;;1.10;0.80;;;15.70;91.80;;;;;;5038745;28;20479;-76
2023/03/25 15:20:28;;;;;;;1.60;1.10;;;15.30;92.60;;;;;;5037734;28;20846;-75
2023/03/25 15:23:35;;;;;;;2.03;1.27;;;14.90;92.30;;;;;;5008631;28;20823;-76
2023/03/25 15:26:04;;;;;;;1.90;0.77;;;14.60;93.20;;;;;;5016745;28;20595;-74
2023/03/25 15:29:14;;;;;;;2.10;0.80;;;14.50;93.30;;;;;;5017583;28;20525;-74
2023/03/25 15:32:02;;;;;;;1.20;0.80;;;14.30;93.80;;;;;;5017110;28;20750;-74
2023/03/25 15:34:54;;;;;;;1.10;0.87;;;14.20;94.70;;;;;;5016165;28;20493;-75
2023/03/25 15:37:53;;;;;;;1.30;0.90;;;14.40;94.00;;;;;;5016529;28;20507;-75
2023/03/25 15:40:32;;;;;;;1.00;0.87;;;14.50;94.10;;;;;;5015678;28;20485;-75
2023/03/25 15:43:43;;;;;;;2.70;1.13;;;14.50;94.20;;;;;;5016951;28;20630;-75
2023/03/25 15:46:31;;;;;;;1.20;0.83;;;14.50;94.40;;;;;;5015638;28;20461;-75
2023/03/25 15:49:13;;;;;;;1.70;0.87;;;14.00;94.30;;;;;;5015928;28;20453;-75
2023/03/25 15:51:55;;;;;;;1.20;0.87;;;13.80;94.20;;;;;;5015498;28;20461;-75
2023/03/25 15:54:35;;;;;;;1.23;1.00;;;13.80;94.70;;;;;;5014813;28;20520;-75
2023/03/25 15:57:07;;;;;;;2.83;0.90;;;13.90;94.70;;;;;;5018210;28;20452;-75
2023/03/25 15:59:41;;;;;;;1.00;0.70;;;13.60;95.20;;;;;;5033632;28;20847;-75
2023/03/25 16:02:21;;;;;;;1.00;0.90;;;13.60;95.30;;;;;;5033644;28;20939;-75
2023/03/25 16:04:50;;;;;;;2.00;1.00;;;13.80;95.20;;;;;;5033402;28;20487;-75
2023/03/25 16:07:20;;;;;;;1.30;0.90;;;13.90;95.20;;;;;;5032790;28;20464;-76
2023/03/25 16:09:48;;;;;;;1.77;1.00;;;14.00;95.30;;;;;;5032867;28;20555;-76
2023/03/25 16:12:20;;;;;;;1.67;1.10;;;13.90;95.10;;;;;;5033331;28;20465;-75
2023/03/25 16:14:48;;;;;;;1.90;1.37;;;14.00;94.70;;;;;;5031576;28;20885;-76
2023/03/25 16:17:18;;;;;;;3.50;1.17;;;14.10;93.60;;;;;;5031977;28;20786;-76
2023/03/25 16:19:49;;;;;;;0.90;0.80;;;14.10;93.40;;;;;;5032507;28;20494;-74
2023/03/25 16:22:21;;;;;;;1.10;1.00;;;14.10;93.70;;;;;;5031447;28;20527;-75
2023/03/25 16:24:50;;;;;;;1.00;0.90;;;13.90;94.00;;;;;;5031944;28;20862;-76
2023/03/25 16:27:23;;;;;;;1.53;0.80;;;13.70;93.50;;;;;;5032021;28;20473;-76
2023/03/25 16:29:51;;;;;;;2.00;1.05;;;13.40;93.70;;;;;;5032619;28;20480;-74
2023/03/25 16:32:22;;;;;;;2.33;1.38;;;13.20;94.70;;;;;;5031831;28;20206;-75
2023/03/25 16:34:50;;;;;;;1.07;0.93;;;13.00;94.30;;;;;;5023870;28;20572;-75
2023/03/25 16:37:17;;;;;;;1.08;0.80;;;12.90;94.40;;;;;;5015925;28;20493;-74
2023/03/25 16:39:50;;;;;;;1.80;0.98;;;12.80;94.50;;;;;;5013786;28;20653;-75
2023/03/25 16:42:19;;;;;;;1.35;0.95;;;12.90;94.80;;;;;;5032493;28;20264;-75
2023/03/25 16:44:46;;;;;;;1.40;0.90;;;12.80;94.80;;;;;;5013700;28;20222;-75
2023/03/25 16:47:15;;;;;;;1.17;0.85;;;12.90;94.90;;;;;;5011789;28;20217;-76
2023/03/25 16:49:47;;;;;;;3.95;1.20;;;13.00;95.00;;;;;;5013645;28;20218;-76
2023/03/25 16:52:18;;;;;;;1.27;1.00;;;13.10;95.20;;;;;;5029091;28;20221;-76
2023/03/25 16:55:08;;;;;;;4.63;1.33;;;13.00;95.00;;;;;;5029973;28;20673;-76
2023/03/25 16:57:39;;;;;;;1.10;0.90;;;12.70;95.30;;;;;;5030827;28;20208;-75
2023/03/25 17:00:17;;;;;;;1.48;1.00;;;12.40;95.70;;;;;;5030756;28;20225;-75
2023/03/25 17:02:47;;;;;;;1.10;0.90;;;12.30;95.60;;;;;;5014251;28;20245;-76
2023/03/25 17:05:19;;;;;;;1.80;1.15;;;12.20;95.90;;;;;;5011365;28;20219;-75
2023/03/25 17:07:48;;;;;;;0.80;0.70;;;11.90;96.20;;;;;;5028735;28;20293;-75
2023/03/25 17:10:19;;;;;;;1.75;1.52;;;11.80;96.40;;;;;;5029884;28;20222;-75
2023/03/25 17:12:53;;;;;;;1.30;0.90;;;11.70;96.70;;;;;;5031184;28;20209;-75
2023/03/25 17:15:22;;;;;;;1.23;0.90;;;11.60;96.70;;;;;;5029338;28;20314;-74
2023/03/25 17:17:58;;;;;;;1.58;1.08;;;11.60;96.80;;;;;;5011546;28;20203;-74
2023/03/25 17:20:34;;;;;;;2.20;1.25;;;11.40;97.20;;;;;;5017335;28;20275;-74
2023/03/25 17:23:06;;;;;;;1.48;1.10;;;11.30;97.40;;;;;;5029453;28;20197;-74
2023/03/25 17:25:35;;;;;;;2.85;1.00;;;11.20;97.60;;;;;;5029736;28;20222;-75
2023/03/25 17:28:22;;;;;;;3.53;1.33;;;11.20;97.80;;;;;;5029079;28;20683;-73
2023/03/25 17:30:49;;;;;;;2.15;1.25;;;11.10;97.70;;;;;;5028977;28;20680;-74
2023/03/25 17:33:20;;;;;;;2.08;1.27;;;11.00;97.90;;;;;;5029836;28;20301;-75
2023/03/25 17:35:59;;;;;;;1.15;0.85;;;10.90;98.10;;;;;;5029156;28;20212;-76
2023/03/25 17:38:28;;;;;;;1.95;1.00;;;10.90;98.00;;;;;;5011715;28;20210;-74
2023/03/25 17:41:02;;;;;;;1.75;1.10;;;10.80;98.10;;;;;;5009876;28;20226;-74
2023/03/25 17:43:33;;;;;;;1.98;1.15;;;10.80;98.20;;;;;;5010101;28;20198;-74
2023/03/25 17:46:00;;;;;;;1.42;1.20;;;10.70;98.80;;;;;;5009363;28;20226;-74
2023/03/25 17:48:28;;;;;;;5.50;4.32;;;10.60;98.40;;;;;;5009156;28;20226;-74
2023/03/25 17:50:57;;;;;;;4.70;3.60;;;10.60;98.50;;;;;;5009771;28;20223;-74
2023/03/25 17:53:25;;;;;;;5.65;1.35;;;10.50;98.50;;;;;;5024794;28;20202;-74
2023/03/25 17:55:52;;;;;;;3.13;1.33;;;10.60;98.70;;;;;;5011552;28;20206;-73
2023/03/25 17:58:20;;;;;;;1.50;1.40;;;10.50;99.10;;;;;;5010364;28;20206;-75
2023/03/25 18:00:48;;;;;;;2.60;1.33;;;10.40;99.10;;;;;;5010239;28;20237;-75
2023/03/25 18:03:17;;;;;;;1.58;1.10;;;10.30;99.30;;;;;;5010164;28;20210;-74
2023/03/25 18:05:45;;;;;;;2.22;1.65;;;10.30;99.60;;;;;;5009515;28;20247;-75
2023/03/25 18:08:13;;;;;;;2.50;1.08;;;10.30;99.90;;;;;;5010063;28;20230;-75
2023/03/25 18:10:41;;;;;;;1.60;1.25;;;10.30;99.90;;;;;;5009446;28;20226;-74
2023/03/25 18:13:08;;;;;;;2.80;1.20;;;10.20;99.90;;;;;;5008501;28;20463;-76
2023/03/25 18:15:35;;;;;;;1.75;1.33;;;10.20;99.90;;;;;;5009120;28;20229;-78
2023/03/25 18:18:02;;;;;;;1.55;0.95;;;10.20;99.90;;;;;;5010060;28;20224;-77
2023/03/25 18:20:31;;;;;;;2.60;1.50;;;10.10;99.90;;;;;;5022217;28;20240;-77
2023/03/25 18:22:58;;;;;;;4.25;1.38;;;10.10;99.90;;;;;;5012285;28;20226;-78
2023/03/25 18:25:26;;;;;;;4.35;1.30;;;10.00;99.90;;;;;;5011092;28;20222;-76
2023/03/25 18:27:55;;;;;;;1.48;1.10;;;9.90;99.90;;;;;;5012379;28;20207;-76
2023/03/25 18:30:25;;;;;;;2.78;1.67;;;9.90;99.90;;;;;;5026647;22;20218;-69
2023/03/25 18:32:52;;;;;;;1.38;1.20;;;9.80;99.90;;;;;;5008456;28;20610;-70
2023/03/25 18:35:19;;;;;;;4.18;1.45;;;9.50;99.90;;;;;;5028125;28;20346;-69
2023/03/25 18:37:47;;;;;;;2.88;1.90;;;9.50;99.90;;;;;;4996318;28;20210;-69
2023/03/25 18:40:17;;;;;;;1.90;1.10;;;9.40;99.90;;;;;;5007290;28;20222;-69
2023/03/25 18:42:46;;;;;;;1.20;1.00;;;9.30;99.90;;;;;;4992659;28;20273;-69
2023/03/25 18:45:13;;;;;;;2.00;1.00;;;9.30;99.90;;;;;;4998764;28;20709;-70
2023/03/25 18:47:40;;;;;;;2.08;1.08;;;9.20;99.90;;;;;;4998405;28;20223;-70
2023/03/25 18:50:25;;;;;;;2.35;1.13;;;9.10;99.90;;;;;;4990219;28;20227;-70
2023/03/25 18:52:52;;;;;;;1.52;1.00;;;9.10;99.90;;;;;;4990041;28;20207;-70
2023/03/25 18:55:22;;;;;;;1.60;1.10;;;9.00;99.90;;;;;;5002326;28;20203;-70
2023/03/25 18:57:51;;;;;;;1.85;1.30;;;9.00;99.90;;;;;;4992275;28;20206;-70
2023/03/25 19:00:23;;;;;;;1.65;1.20;;;9.00;99.90;;;;;;4989747;28;20230;-70
2023/03/25 19:02:50;;;;;;;4.28;1.35;;;8.90;99.90;;;;;;5006811;28;20669;-70
2023/03/25 19:05:17;;;;;;;1.13;0.90;;;8.90;99.90;;;;;;4994145;28;20223;-70
2023/03/25 19:07:44;;;;;;;2.75;1.30;;;8.80;99.90;;;;;;4990137;28;20214;-70
2023/03/25 19:10:15;;;;;;;5.47;1.55;;;8.80;99.90;;;;;;4993958;28;20230;-70
2023/03/25 19:12:43;;;;;;;4.85;1.65;;;8.70;99.90;;;;;;5009094;28;20233;-70
2023/03/25 19:15:14;;;;;;;3.28;1.92;;;8.70;99.90;;;;;;4982930;28;20273;-70
2023/03/25 19:17:40;;;;;;;1.65;1.00;;;8.50;99.90;;;;;;4992478;28;20210;-69
2023/03/25 19:20:08;;;;;;;1.75;1.38;;;8.50;99.90;;;;;;4993467;28;20223;-69
2023/03/25 19:22:35;;;;;;;1.45;1.10;;;8.50;99.90;;;;;;4994093;28;20238;-72
2023/03/25 19:25:02;;;;;;;1.20;1.10;;;8.50;99.90;;;;;;4992975;28;20233;-72
2023/03/25 19:27:29;;;;;;;1.95;1.50;;;8.50;99.90;;;;;;5006593;28;20213;-72
2023/03/25 19:29:55;;;;;;;3.50;1.83;;;8.50;99.90;;;;;;5012971;28;20233;-72
2023/03/25 19:32:26;;;;;;;1.98;1.08;;;8.50;99.90;;;;;;5007010;28;20207;-72
2023/03/25 19:34:55;;;;;;;2.45;1.25;;;8.50;99.90;;;;;;4994311;28;20195;-72
2023/03/25 19:37:29;;;;;;;1.00;0.90;;;8.50;99.90;;;;;;5011840;28;20661;-72
2023/03/25 19:39:57;;;;;;;1.42;1.10;;;8.50;99.90;;;;;;5012880;28;20222;-72
2023/03/25 19:42:23;;;;;;;1.50;1.00;;;8.60;99.90;;;;;;5010573;28;20205;-72
2023/03/25 19:44:53;;;;;;;1.17;1.00;;;8.60;99.90;;;;;;5012732;28;20225;-72
2023/03/25 19:47:20;;;;;;;1.45;1.00;;;8.50;99.90;;;;;;5010913;28;20210;-69
2023/03/25 19:49:48;;;;;;;2.08;0.95;;;8.40;99.90;;;;;;4995878;28;20231;-71